Time;durP1;ratioP1;P1;durP2;ratioP2;P2;SDS_P1;SDS_P2;PMS_P1;PMS_P2;Temp;Humidity;BMP_temperature;BMP_pressure;BME280_temperature;BME280_humidity;BME280_pressure;Samples;Min_cycle;Max_cycle;Signal;HPM_P1;HPM_P2
2023/12/19 00:01:51;;;;;;;8.77;2.80;;;14.10;78.20;;;;;;5027370;28;20033;-82
2023/12/19 00:04:17;;;;;;;12.30;3.90;;;14.10;78.30;;;;;;5039092;28;20041;-84
2023/12/19 00:06:43;;;;;;;10.70;2.58;;;14.10;78.30;;;;;;5054811;28;20044;-83
2023/12/19 00:09:09;;;;;;;10.77;3.53;;;14.00;78.20;;;;;;5042531;28;20036;-84
2023/12/19 00:11:35;;;;;;;12.70;3.40;;;14.10;78.40;;;;;;5035530;28;20048;-83
2023/12/19 00:14:01;;;;;;;8.77;2.70;;;14.10;78.90;;;;;;5033487;28;20032;-83
2023/12/19 00:16:27;;;;;;;12.07;3.45;;;14.10;78.50;;;;;;5039489;28;20548;-82
2023/12/19 00:18:53;;;;;;;9.93;3.17;;;14.00;78.30;;;;;;5036282;28;20033;-82
2023/12/19 00:21:19;;;;;;;10.30;4.07;;;14.00;78.40;;;;;;5048319;28;20037;-81
2023/12/19 00:23:47;;;;;;;9.85;3.17;;;14.10;78.50;;;;;;5045151;28;20033;-83
2023/12/19 00:26:16;;;;;;;10.57;3.03;;;14.00;78.40;;;;;;5032892;28;20626;-82
2023/12/19 00:28:43;;;;;;;10.70;2.97;;;14.00;78.50;;;;;;5027928;28;20427;-83
2023/12/19 00:31:19;;;;;;;8.52;2.67;;;14.10;78.70;;;;;;5026505;28;20139;-82
2023/12/19 00:33:45;;;;;;;10.20;3.80;;;14.00;78.50;;;;;;5053421;28;20115;-83
2023/12/19 00:36:23;;;;;;;7.30;2.42;;;14.10;78.70;;;;;;5062805;28;20144;-84
2023/12/19 00:38:50;;;;;;;9.00;3.13;;;14.00;78.60;;;;;;5048214;28;20217;-82
2023/12/19 00:41:17;;;;;;;8.30;2.60;;;14.00;78.50;;;;;;5062953;28;20028;-85
2023/12/19 00:43:44;;;;;;;6.07;3.05;;;14.00;78.60;;;;;;5059499;28;20053;-84
2023/12/19 00:46:10;;;;;;;9.60;3.03;;;14.00;78.60;;;;;;5055302;28;20377;-83
2023/12/19 00:48:37;;;;;;;10.43;2.65;;;14.00;78.70;;;;;;5060826;28;20029;-84
2023/12/19 00:51:13;;;;;;;9.85;2.63;;;14.00;78.70;;;;;;5036664;28;20505;-84
2023/12/19 00:53:41;;;;;;;8.52;3.17;;;14.00;78.80;;;;;;5031050;28;20190;-83
2023/12/19 00:56:11;;;;;;;7.97;3.58;;;14.00;78.80;;;;;;5037073;28;20143;-83
2023/12/19 00:58:38;;;;;;;11.13;3.75;;;14.00;78.90;;;;;;5034616;28;20029;-84
2023/12/19 01:01:05;;;;;;;10.60;3.67;;;14.00;78.90;;;;;;5032863;28;20429;-84
2023/12/19 01:03:32;;;;;;;7.60;3.50;;;14.00;79.00;;;;;;5037483;28;20106;-83
2023/12/19 01:06:03;;;;;;;6.68;2.45;;;14.00;79.00;;;;;;5020834;28;20153;-84
2023/12/19 01:08:30;;;;;;;8.40;2.97;;;14.00;79.10;;;;;;5036506;28;20048;-85
2023/12/19 01:10:56;;;;;;;9.00;2.75;;;14.00;79.10;;;;;;5049077;28;20052;-86
2023/12/19 01:13:22;;;;;;;7.25;2.88;;;14.00;79.10;;;;;;5050277;28;20022;-88
2023/12/19 01:15:49;;;;;;;7.35;2.53;;;14.00;79.10;;;;;;5039726;28;20044;-87
2023/12/19 01:18:15;;;;;;;10.57;3.72;;;14.00;79.20;;;;;;5034312;28;20394;-87
2023/12/19 01:20:41;;;;;;;5.53;2.35;;;14.00;79.20;;;;;;5018586;28;20136;-87
2023/12/19 01:23:08;;;;;;;7.72;2.70;;;13.90;79.10;;;;;;5030492;28;20109;-85
2023/12/19 01:25:34;;;;;;;8.07;2.80;;;14.00;79.30;;;;;;5032459;28;20511;-83
2023/12/19 01:28:00;;;;;;;8.85;2.58;;;14.00;79.40;;;;;;5050761;28;20022;-83
2023/12/19 01:30:26;;;;;;;6.18;2.13;;;13.90;79.20;;;;;;5034997;28;20326;-82
2023/12/19 01:32:52;;;;;;;5.05;2.60;;;14.00;79.40;;;;;;5027710;28;21496;-85
2023/12/19 01:35:18;;;;;;;6.75;2.45;;;13.90;79.20;;;;;;5027436;28;20041;-84
2023/12/19 01:37:44;;;;;;;3.95;2.08;;;13.90;79.30;;;;;;5037049;28;20275;-82
2023/12/19 01:40:10;;;;;;;6.43;2.75;;;14.00;79.50;;;;;;5046222;28;20195;-84
2023/12/19 01:42:36;;;;;;;6.40;2.28;;;14.00;79.50;;;;;;5031382;28;20037;-85
2023/12/19 01:45:11;;;;;;;6.35;2.10;;;14.00;79.50;;;;;;5047088;28;20117;-84
2023/12/19 01:47:44;;;;;;;7.28;2.30;;;14.00;79.60;;;;;;5032829;28;20208;-83
2023/12/19 01:50:14;;;;;;;;;;;14.00;79.60;;;;;;5042403;28;20523;-85
2023/12/19 01:52:46;;;;;;;8.25;2.88;;;14.00;79.60;;;;;;5026715;28;20014;-84
2023/12/19 01:55:14;;;;;;;3.80;2.90;;;14.00;79.40;;;;;;5035409;28;20537;-84
2023/12/19 01:57:41;;;;;;;9.93;2.78;;;14.00;79.50;;;;;;5032234;28;20026;-86
2023/12/19 02:00:08;;;;;;;8.10;2.97;;;14.00;80.00;;;;;;5040626;28;20044;-85
2023/12/19 02:02:35;;;;;;;4.35;2.15;;;14.00;79.60;;;;;;5035783;28;20770;-85
2023/12/19 02:05:01;;;;;;;4.63;2.00;;;14.00;79.60;;;;;;5048726;28;20029;-85
2023/12/19 02:07:27;;;;;;;4.25;1.63;;;14.00;79.60;;;;;;5037691;28;20066;-85
2023/12/19 02:09:53;;;;;;;4.32;2.20;;;14.00;79.70;;;;;;5029368;28;20064;-84
2023/12/19 02:12:21;;;;;;;5.38;1.98;;;14.00;79.70;;;;;;5035293;28;20096;-82
2023/12/19 02:14:49;;;;;;;3.50;1.92;;;14.00;79.80;;;;;;5027767;28;20128;-83
2023/12/19 02:17:16;;;;;;;6.30;1.88;;;14.00;79.80;;;;;;5031012;28;20044;-84
2023/12/19 02:19:44;;;;;;;3.38;1.92;;;14.00;79.80;;;;;;5033144;28;20101;-86
2023/12/19 02:22:11;;;;;;;3.05;1.33;;;14.00;79.80;;;;;;5034933;28;20103;-87
2023/12/19 02:24:38;;;;;;;4.00;1.83;;;14.00;79.80;;;;;;5055939;28;20044;-86
2023/12/19 02:27:04;;;;;;;4.00;1.42;;;14.10;80.10;;;;;;5058895;28;20029;-87
2023/12/19 02:29:30;;;;;;;2.10;1.05;;;14.00;79.90;;;;;;5050215;28;20113;-88
2023/12/19 02:31:57;;;;;;;2.08;1.17;;;14.00;80.00;;;;;;5038769;28;20120;-89
2023/12/19 02:34:25;;;;;;;5.03;1.80;;;14.00;80.00;;;;;;5036473;28;20056;-89
2023/12/19 02:36:51;;;;;;;4.95;1.50;;;14.10;80.20;;;;;;5033934;28;20048;-88
2023/12/19 02:39:18;;;;;;;3.00;1.33;;;14.00;80.00;;;;;;5043272;28;20025;-87
2023/12/19 02:41:47;;;;;;;3.00;1.30;;;14.00;80.10;;;;;;5043058;28;20540;-87
2023/12/19 02:44:12;;;;;;;3.65;1.25;;;14.10;80.30;;;;;;5030093;28;20112;-88
2023/12/19 02:46:38;;;;;;;4.22;1.65;;;14.10;80.30;;;;;;5035450;28;20528;-83
2023/12/19 02:49:05;;;;;;;2.55;1.00;;;14.00;80.10;;;;;;5043728;28;20025;-87
2023/12/19 02:51:31;;;;;;;2.50;1.20;;;14.00;80.20;;;;;;5034162;28;20037;-88
2023/12/19 02:53:58;;;;;;;1.77;0.82;;;14.00;80.20;;;;;;5040770;28;20033;-86
2023/12/19 02:56:25;;;;;;;1.98;1.27;;;14.00;80.20;;;;;;5043323;28;20553;-86
2023/12/19 02:58:51;;;;;;;3.08;0.82;;;14.00;80.30;;;;;;5034263;28;20531;-86
2023/12/19 03:01:17;;;;;;;1.00;0.70;;;14.00;80.30;;;;;;5041952;28;20028;-86
2023/12/19 03:03:43;;;;;;;1.27;0.80;;;14.00;80.30;;;;;;5056734;28;20057;-86
2023/12/19 03:06:13;;;;;;;3.17;1.80;;;14.00;80.40;;;;;;5034962;28;20129;-87
2023/12/19 03:08:50;;;;;;;1.50;0.75;;;14.00;80.40;;;;;;5032206;28;20025;-86
2023/12/19 03:11:16;;;;;;;2.53;0.75;;;14.00;80.50;;;;;;5044778;28;20036;-86
2023/12/19 03:13:42;;;;;;;1.85;0.50;;;14.00;80.40;;;;;;5036284;28;20562;-84
2023/12/19 03:16:09;;;;;;;1.95;0.70;;;14.00;80.40;;;;;;5049962;28;20328;-85
2023/12/19 03:18:35;;;;;;;4.85;0.60;;;14.00;80.50;;;;;;5033016;28;20071;-86
2023/12/19 03:21:01;;;;;;;0.98;0.60;;;14.00;80.50;;;;;;5038590;28;20067;-84
2023/12/19 03:23:28;;;;;;;2.08;0.60;;;14.00;80.50;;;;;;5040661;28;20105;-83
2023/12/19 03:25:54;;;;;;;1.13;0.50;;;14.10;80.70;;;;;;5035479;28;20037;-84
2023/12/19 03:28:21;;;;;;;0.90;0.65;;;14.00;80.50;;;;;;5039517;28;20071;-84
2023/12/19 03:30:47;;;;;;;3.30;0.82;;;14.00;80.60;;;;;;5034920;28;20140;-84
2023/12/19 03:33:13;;;;;;;1.88;0.82;;;14.00;80.60;;;;;;5028823;28;20528;-85
2023/12/19 03:35:39;;;;;;;1.55;0.50;;;14.00;80.60;;;;;;5046293;28;20033;-86
2023/12/19 03:38:05;;;;;;;1.08;0.43;;;14.00;80.60;;;;;;5027681;28;20489;-84
2023/12/19 03:40:33;;;;;;;1.58;0.40;;;14.10;80.80;;;;;;5031905;28;20029;-85
2023/12/19 03:42:59;;;;;;;2.20;0.50;;;14.00;80.60;;;;;;5036998;28;20036;-85
2023/12/19 03:45:25;;;;;;;1.08;0.50;;;14.00;80.70;;;;;;5031899;28;20026;-84
2023/12/19 03:47:51;;;;;;;1.85;0.50;;;14.00;80.70;;;;;;5038489;28;20079;-86
2023/12/19 03:50:17;;;;;;;1.35;0.50;;;14.00;80.70;;;;;;5021929;28;20094;-84
2023/12/19 03:52:43;;;;;;;1.08;0.40;;;14.00;80.80;;;;;;5033124;28;20037;-86
2023/12/19 03:55:10;;;;;;;0.20;0.20;;;14.00;80.80;;;;;;5037791;28;20507;-86
2023/12/19 03:57:37;;;;;;;1.23;0.40;;;14.00;80.80;;;;;;5036484;28;20029;-85
2023/12/19 04:00:04;;;;;;;0.30;0.30;;;14.00;80.80;;;;;;5039095;28;20025;-85
2023/12/19 04:02:34;;;;;;;0.68;0.40;;;14.00;80.90;;;;;;5038371;28;20082;-88
2023/12/19 04:05:01;;;;;;;1.05;0.50;;;14.00;80.90;;;;;;5024819;28;20029;-87
2023/12/19 04:07:27;;;;;;;0.75;0.40;;;14.00;80.90;;;;;;5028453;28;20047;-85
2023/12/19 04:09:53;;;;;;;1.02;0.50;;;14.00;80.90;;;;;;5036886;28;20118;-86
2023/12/19 04:12:19;;;;;;;0.60;0.40;;;14.00;81.00;;;;;;5039551;28;20021;-87
2023/12/19 04:14:45;;;;;;;1.90;0.38;;;14.00;81.00;;;;;;5033913;28;20044;-85
2023/12/19 04:17:12;;;;;;;1.90;0.50;;;14.00;81.00;;;;;;5037008;28;20064;-84
2023/12/19 04:19:39;;;;;;;0.40;0.40;;;14.00;81.00;;;;;;5047229;28;20035;-85
2023/12/19 04:22:05;;;;;;;1.30;0.40;;;14.00;81.00;;;;;;5058871;28;20033;-84
2023/12/19 04:24:31;;;;;;;0.38;0.38;;;14.00;81.00;;;;;;5035288;28;20036;-85
2023/12/19 04:26:57;;;;;;;0.93;0.40;;;14.00;81.00;;;;;;5040607;28;20048;-86
2023/12/19 04:29:23;;;;;;;1.10;0.40;;;14.00;81.00;;;;;;5025832;28;20033;-85
2023/12/19 04:31:49;;;;;;;0.45;0.45;;;14.00;81.00;;;;;;5054381;28;20025;-87
2023/12/19 04:34:15;;;;;;;1.40;0.45;;;14.00;81.10;;;;;;5050337;28;20035;-86
2023/12/19 04:36:41;;;;;;;0.60;0.40;;;14.00;81.10;;;;;;5032158;28;20068;-85
2023/12/19 04:39:07;;;;;;;0.32;0.30;;;14.00;81.10;;;;;;5053417;28;20067;-84
2023/12/19 04:41:34;;;;;;;0.30;0.30;;;14.00;81.10;;;;;;5021046;28;20033;-85
2023/12/19 04:44:00;;;;;;;1.15;0.32;;;14.00;81.20;;;;;;5053339;28;20060;-86
2023/12/19 04:46:27;;;;;;;3.05;0.32;;;14.00;81.20;;;;;;5040791;28;20064;-87
2023/12/19 04:48:55;;;;;;;0.95;0.40;;;14.00;81.20;;;;;;5027499;28;20037;-85
2023/12/19 04:51:22;;;;;;;1.75;0.35;;;14.00;81.20;;;;;;5053991;28;20182;-84
2023/12/19 04:53:49;;;;;;;0.30;0.30;;;14.00;81.30;;;;;;5038369;28;20100;-84
2023/12/19 04:56:18;;;;;;;1.05;0.32;;;14.00;81.30;;;;;;5041819;28;20043;-84
2023/12/19 04:58:46;;;;;;;0.85;0.40;;;14.00;81.30;;;;;;5042190;28;20068;-83
2023/12/19 05:01:12;;;;;;;0.82;0.40;;;14.00;81.40;;;;;;5042476;28;20110;-83
2023/12/19 05:03:39;;;;;;;0.77;0.35;;;14.00;81.40;;;;;;5035578;28;20033;-84
2023/12/19 05:06:16;;;;;;;2.08;0.40;;;14.00;81.40;;;;;;5053678;28;20048;-83
2023/12/19 05:08:46;;;;;;;1.50;0.40;;;14.00;81.40;;;;;;5020735;28;20021;-84
2023/12/19 05:11:12;;;;;;;0.68;0.40;;;14.00;81.40;;;;;;5031649;28;20104;-84
2023/12/19 05:13:38;;;;;;;1.15;0.30;;;14.00;81.40;;;;;;5031865;28;20503;-82
2023/12/19 05:16:14;;;;;;;1.05;0.45;;;14.00;81.40;;;;;;5020254;28;20214;-83
2023/12/19 05:18:42;;;;;;;1.60;0.40;;;14.00;81.50;;;;;;5041923;28;20047;-83
2023/12/19 05:21:09;;;;;;;0.47;0.40;;;14.00;81.40;;;;;;5042095;28;20126;-83
2023/12/19 05:23:37;;;;;;;1.15;0.47;;;14.00;81.50;;;;;;5045022;28;20036;-83
2023/12/19 05:26:03;;;;;;;2.42;0.40;;;14.00;81.40;;;;;;5059849;28;20491;-83
2023/12/19 05:28:30;;;;;;;0.43;0.38;;;13.90;81.30;;;;;;5044550;28;20025;-83
2023/12/19 05:30:56;;;;;;;0.30;0.30;;;14.00;81.50;;;;;;5024762;28;20055;-83
2023/12/19 05:33:26;;;;;;;0.60;0.60;;;14.00;81.50;;;;;;5038733;28;20435;-85
2023/12/19 05:35:53;;;;;;;0.60;0.50;;;14.00;81.50;;;;;;5054141;28;20373;-84
2023/12/19 05:38:19;;;;;;;0.88;0.50;;;14.00;81.50;;;;;;5028347;28;20263;-84
2023/12/19 05:40:45;;;;;;;1.30;0.40;;;14.00;81.50;;;;;;5042761;28;20068;-83
2023/12/19 05:43:13;;;;;;;2.38;0.60;;;14.00;81.60;;;;;;5034589;28;20060;-82
2023/12/19 05:45:40;;;;;;;0.52;0.52;;;14.00;81.60;;;;;;5039305;28;20033;-84
2023/12/19 05:48:07;;;;;;;0.50;0.50;;;14.00;81.60;;;;;;5036326;28;20061;-84
2023/12/19 05:50:33;;;;;;;1.30;0.60;;;13.90;81.50;;;;;;5033717;28;20095;-84
2023/12/19 05:53:00;;;;;;;0.50;0.50;;;14.00;81.70;;;;;;5055266;28;20025;-83
2023/12/19 05:55:26;;;;;;;0.63;0.60;;;14.00;81.70;;;;;;5023434;28;20037;-84
2023/12/19 05:57:52;;;;;;;0.57;0.52;;;14.00;81.70;;;;;;5034642;28;20056;-83
2023/12/19 06:00:18;;;;;;;0.50;0.50;;;14.00;81.80;;;;;;5037127;28;20030;-81
2023/12/19 06:02:44;;;;;;;2.38;0.73;;;14.00;81.80;;;;;;5033613;28;20040;-86
2023/12/19 06:05:11;;;;;;;1.23;0.50;;;13.90;81.60;;;;;;5016934;28;20041;-86
2023/12/19 06:07:37;;;;;;;1.38;0.70;;;14.00;81.80;;;;;;5051049;28;20175;-87
2023/12/19 06:10:09;;;;;;;0.68;0.68;;;13.90;81.60;;;;;;5040851;28;20524;-85
2023/12/19 06:12:38;;;;;;;0.60;0.60;;;13.90;81.70;;;;;;5018015;28;20028;-87
2023/12/19 06:15:11;;;;;;;0.95;0.60;;;14.00;81.90;;;;;;5037914;28;20486;-83
2023/12/19 06:17:46;;;;;;;0.57;0.57;;;14.00;81.90;;;;;;5037080;28;20401;-87
2023/12/19 06:20:12;;;;;;;0.80;0.80;;;13.90;81.70;;;;;;5058711;28;20130;-84
2023/12/19 06:22:43;;;;;;;1.35;0.80;;;13.90;81.70;;;;;;5045478;28;20050;-85
2023/12/19 06:25:10;;;;;;;0.80;0.57;;;13.90;81.70;;;;;;5050314;28;20040;-85
2023/12/19 06:27:36;;;;;;;0.70;0.70;;;13.90;81.70;;;;;;5034020;28;20571;-82
2023/12/19 06:30:03;;;;;;;0.77;0.77;;;13.90;81.70;;;;;;5039848;28;20039;-85
2023/12/19 06:32:29;;;;;;;0.75;0.75;;;14.00;82.00;;;;;;5057244;28;20017;-86
2023/12/19 06:34:57;;;;;;;0.52;0.52;;;13.90;81.80;;;;;;5053125;28;20053;-86
2023/12/19 06:37:24;;;;;;;1.10;0.90;;;14.00;82.00;;;;;;5042454;28;20652;-86
2023/12/19 06:39:51;;;;;;;0.88;0.75;;;14.00;82.10;;;;;;5045475;28;20048;-91
2023/12/19 06:42:16;;;;;;;4.40;1.20;;;14.00;82.10;;;;;;5046269;28;20041;-87
2023/12/19 06:44:43;;;;;;;4.20;1.55;;;13.90;81.90;;;;;;5049816;28;20107;-86
2023/12/19 06:47:09;;;;;;;3.25;1.02;;;14.00;82.10;;;;;;5051377;28;20106;-80
2023/12/19 06:49:35;;;;;;;2.13;0.90;;;13.90;82.00;;;;;;5050384;28;20025;-87
2023/12/19 06:52:04;;;;;;;2.35;0.90;;;13.90;82.00;;;;;;5048809;28;20036;-86
2023/12/19 06:54:39;;;;;;;2.97;1.08;;;13.90;82.00;;;;;;5048645;28;20056;-85
2023/12/19 06:57:05;;;;;;;4.95;1.13;;;13.90;82.00;;;;;;5051356;28;20033;-83
2023/12/19 06:59:34;;;;;;;1.85;0.80;;;14.00;82.20;;;;;;5061435;28;20096;-86
2023/12/19 07:02:01;;;;;;;1.52;0.60;;;13.90;82.00;;;;;;5058052;28;20329;-87
2023/12/19 07:04:27;;;;;;;3.28;0.82;;;13.90;82.00;;;;;;5042876;28;20033;-87
2023/12/19 07:06:53;;;;;;;0.73;0.70;;;13.90;82.00;;;;;;5030010;28;20211;-88
2023/12/19 07:09:21;;;;;;;1.58;0.80;;;14.00;82.20;;;;;;5049528;28;20200;-87
2023/12/19 07:11:48;;;;;;;4.10;0.80;;;13.90;82.00;;;;;;5047726;28;20367;-87
2023/12/19 07:14:20;;;;;;;1.35;0.60;;;13.90;82.00;;;;;;5021222;28;20112;-89
2023/12/19 07:16:46;;;;;;;3.75;0.65;;;13.90;82.00;;;;;;5043551;28;20131;-87
2023/12/19 07:19:12;;;;;;;2.05;0.75;;;13.90;82.00;;;;;;5043383;28;20541;-88
2023/12/19 07:21:39;;;;;;;2.25;0.77;;;13.90;82.00;;;;;;5046454;28;20282;-88
2023/12/19 07:24:05;;;;;;;2.72;0.63;;;13.90;82.00;;;;;;5035112;28;20445;-88
2023/12/19 07:26:32;;;;;;;0.63;0.50;;;13.90;82.00;;;;;;5017619;28;20068;-89
2023/12/19 07:28:59;;;;;;;0.63;0.45;;;13.90;82.00;;;;;;5036116;28;20049;-89
2023/12/19 07:31:27;;;;;;;1.23;0.77;;;13.90;82.60;;;;;;5035649;28;20099;-88
2023/12/19 07:33:56;;;;;;;0.52;0.50;;;13.90;82.00;;;;;;5049309;28;20368;-88
2023/12/19 07:36:23;;;;;;;0.63;0.63;;;13.90;82.10;;;;;;5034975;28;20144;-90
2023/12/19 07:38:50;;;;;;;0.68;0.60;;;13.90;82.10;;;;;;5026503;28;20375;-84
2023/12/19 07:41:16;;;;;;;1.67;0.80;;;13.90;82.10;;;;;;5036093;28;20318;-95
2023/12/19 07:43:45;;;;;;;3.28;0.80;;;13.90;82.10;;;;;;5038242;28;20098;-93
2023/12/19 07:46:12;;;;;;;2.70;1.08;;;13.90;82.10;;;;;;5039455;28;20049;-95
2023/12/19 07:48:40;;;;;;;5.93;0.80;;;13.90;82.10;;;;;;5059839;28;20434;-95
2023/12/19 07:51:08;;;;;;;1.20;0.75;;;13.90;82.00;;;;;;5033589;28;20041;-88
2023/12/19 07:53:34;;;;;;;2.25;0.80;;;14.00;81.90;;;;;;5046369;28;20078;-87
2023/12/19 07:56:03;;;;;;;0.82;0.43;;;14.00;81.60;;;;;;5032827;28;20319;-88
2023/12/19 07:58:36;;;;;;;2.42;0.55;;;14.10;81.50;;;;;;5047807;28;20454;-88
2023/12/19 08:01:02;;;;;;;1.38;0.45;;;14.10;81.30;;;;;;5033824;28;20473;-90
2023/12/19 08:03:30;;;;;;;1.55;0.50;;;14.10;81.10;;;;;;5035914;28;20061;-92
2023/12/19 08:05:56;;;;;;;0.55;0.32;;;14.20;81.20;;;;;;5038309;28;20041;-91
2023/12/19 08:08:26;;;;;;;0.98;0.60;;;14.10;80.90;;;;;;5049292;28;20029;-90
2023/12/19 08:10:52;;;;;;;1.05;0.45;;;14.10;80.80;;;;;;5014821;28;20044;-91
2023/12/19 08:13:22;;;;;;;1.20;0.52;;;14.10;80.80;;;;;;5035550;28;20083;-90
2023/12/19 08:15:49;;;;;;;2.03;0.65;;;14.10;80.80;;;;;;5028626;28;20127;-92
2023/12/19 08:18:15;;;;;;;1.75;0.50;;;14.10;80.70;;;;;;5033263;28;20079;-89
2023/12/19 08:20:43;;;;;;;0.45;0.38;;;14.10;80.70;;;;;;5036688;28;20187;-89
2023/12/19 08:23:09;;;;;;;1.33;0.50;;;14.00;80.50;;;;;;5036774;28;20116;-89
2023/12/19 08:25:35;;;;;;;0.75;0.30;;;14.00;80.50;;;;;;5019028;28;20040;-92
2023/12/19 08:28:01;;;;;;;0.50;0.40;;;14.00;80.50;;;;;;5053390;28;20021;-90
2023/12/19 08:30:27;;;;;;;1.60;0.60;;;13.90;80.30;;;;;;5017321;28;20029;-89
2023/12/19 08:32:54;;;;;;;0.40;0.35;;;13.90;80.30;;;;;;5032773;28;20033;-91
2023/12/19 08:35:21;;;;;;;1.40;0.50;;;13.90;80.30;;;;;;5034819;28;20029;-91
2023/12/19 08:37:48;;;;;;;1.02;0.70;;;13.90;80.30;;;;;;5031865;28;20105;-89
2023/12/19 08:40:17;;;;;;;1.13;0.40;;;13.90;80.30;;;;;;5048284;28;20105;-94
2023/12/19 08:42:44;;;;;;;1.00;0.50;;;13.80;80.10;;;;;;5039136;28;20232;-91
2023/12/19 08:45:19;;;;;;;1.85;0.50;;;13.80;80.10;;;;;;5034511;28;20029;-90
2023/12/19 08:47:46;;;;;;;1.58;0.70;;;13.80;80.10;;;;;;5035566;28;20084;-89
2023/12/19 08:50:13;;;;;;;0.70;0.52;;;13.80;80.10;;;;;;5035963;28;20052;-89
2023/12/19 08:52:42;;;;;;;0.55;0.43;;;13.70;80.00;;;;;;5035835;28;20045;-87
2023/12/19 08:55:10;;;;;;;4.50;0.70;;;13.70;79.90;;;;;;5052872;28;20041;-89
2023/12/19 08:57:45;;;;;;;1.10;0.68;;;13.70;79.90;;;;;;5035545;28;20510;-88
2023/12/19 09:00:16;;;;;;;0.50;0.50;;;13.70;79.90;;;;;;5051840;28;20636;-89
2023/12/19 09:02:43;;;;;;;0.50;0.50;;;13.70;79.90;;;;;;5020461;28;20039;-89
2023/12/19 09:05:15;;;;;;;1.83;0.50;;;13.70;79.90;;;;;;5040364;28;20123;-90
2023/12/19 09:07:44;;;;;;;0.50;0.50;;;13.60;79.70;;;;;;5012622;28;20033;-88
2023/12/19 09:10:12;;;;;;;0.88;0.70;;;13.60;79.80;;;;;;5052271;28;20139;-90
2023/12/19 09:12:38;;;;;;;0.50;0.50;;;13.60;79.80;;;;;;5043231;28;20033;-89
2023/12/19 09:15:06;;;;;;;1.00;0.40;;;13.60;79.70;;;;;;5053601;28;20482;-89
2023/12/19 09:17:35;;;;;;;4.03;0.98;;;13.60;79.70;;;;;;5022073;28;20037;-89
2023/12/19 09:20:05;;;;;;;0.65;0.65;;;13.60;79.70;;;;;;5033844;28;20042;-90
2023/12/19 09:22:38;;;;;;;1.20;0.90;;;13.60;79.70;;;;;;5017572;28;20029;-89
2023/12/19 09:25:13;;;;;;;0.60;0.60;;;13.60;79.70;;;;;;5049966;28;20384;-91
2023/12/19 09:27:41;;;;;;;1.23;0.60;;;13.50;79.50;;;;;;5038254;28;20030;-90
2023/12/19 09:30:09;;;;;;;1.35;0.65;;;13.50;79.50;;;;;;5047488;28;20052;-90
2023/12/19 09:32:37;;;;;;;0.50;0.50;;;13.50;79.50;;;;;;5030537;28;20045;-89
2023/12/19 09:35:06;;;;;;;0.80;0.80;;;13.50;79.50;;;;;;5039675;28;20117;-86
2023/12/19 09:37:32;;;;;;;0.65;0.63;;;13.50;79.50;;;;;;5019925;28;20352;-84
2023/12/19 09:39:58;;;;;;;0.95;0.85;;;13.50;79.50;;;;;;5027219;28;20428;-85
2023/12/19 09:42:24;;;;;;;0.75;0.70;;;13.50;79.50;;;;;;5029613;28;20026;-84
2023/12/19 09:44:50;;;;;;;1.30;0.75;;;13.50;79.50;;;;;;5025724;28;20052;-86
2023/12/19 09:47:24;;;;;;;0.82;0.82;;;13.50;79.50;;;;;;5053061;28;20049;-87
2023/12/19 09:49:57;;;;;;;1.33;1.17;;;13.40;79.40;;;;;;5038658;28;20044;-88
2023/12/19 09:52:27;;;;;;;1.23;1.13;;;13.40;79.40;;;;;;5036932;28;20104;-89
2023/12/19 09:54:54;;;;;;;2.00;1.85;;;13.40;79.40;;;;;;5039560;28;20048;-92
2023/12/19 09:57:21;;;;;;;1.08;1.00;;;13.40;79.30;;;;;;5029241;28;20513;-90
2023/12/19 09:59:48;;;;;;;1.20;0.98;;;13.40;79.40;;;;;;5040544;28;20029;-91
2023/12/19 10:02:14;;;;;;;1.40;1.08;;;13.40;79.40;;;;;;5037836;28;20029;-89
2023/12/19 10:04:41;;;;;;;1.20;1.10;;;13.40;79.30;;;;;;5038939;28;20343;-92
2023/12/19 10:07:08;;;;;;;0.85;0.85;;;13.40;79.40;;;;;;5035059;28;20037;-91
2023/12/19 10:09:34;;;;;;;1.30;1.00;;;13.40;79.30;;;;;;5051778;28;20104;-90
2023/12/19 10:12:10;;;;;;;1.02;0.93;;;13.40;79.30;;;;;;5036787;28;20028;-88
2023/12/19 10:14:36;;;;;;;0.82;0.82;;;13.40;79.30;;;;;;5039796;28;20029;-91
2023/12/19 10:17:04;;;;;;;0.70;0.70;;;13.40;79.30;;;;;;5029311;28;20118;-89
2023/12/19 10:19:30;;;;;;;1.30;0.68;;;13.40;79.30;;;;;;5044904;28;20059;-88
2023/12/19 10:22:07;;;;;;;1.25;0.68;;;13.50;79.40;;;;;;5034444;28;20065;-89
2023/12/19 10:24:34;;;;;;;0.65;0.65;;;13.50;79.40;;;;;;5040623;28;20037;-88
2023/12/19 10:27:01;;;;;;;1.05;0.85;;;13.50;79.30;;;;;;5021548;28;20447;-89
2023/12/19 10:29:28;;;;;;;0.65;0.65;;;13.50;79.30;;;;;;5037949;28;20041;-92
2023/12/19 10:31:54;;;;;;;1.30;0.60;;;13.50;79.20;;;;;;5040226;28;20037;-91
2023/12/19 10:34:22;;;;;;;0.90;0.73;;;13.50;79.20;;;;;;5039274;28;20081;-91
2023/12/19 10:36:49;;;;;;;2.25;0.77;;;13.50;79.20;;;;;;5034950;28;20033;-93
2023/12/19 10:39:19;;;;;;;0.73;0.55;;;13.60;79.30;;;;;;5033702;28;20063;-92
2023/12/19 10:41:45;;;;;;;0.55;0.55;;;13.60;79.20;;;;;;5034811;28;20630;-93
2023/12/19 10:44:12;;;;;;;0.70;0.55;;;13.60;79.20;;;;;;5041152;28;20024;-90
2023/12/19 10:46:39;;;;;;;1.98;0.70;;;13.60;79.10;;;;;;5051292;28;20049;-92
2023/12/19 10:49:05;;;;;;;0.77;0.63;;;13.70;79.20;;;;;;5039394;28;20031;-92
2023/12/19 10:51:43;;;;;;;3.60;0.88;;;13.70;79.20;;;;;;5022505;28;20452;-90
2023/12/19 10:54:14;;;;;;;1.70;0.70;;;13.70;79.10;;;;;;5022545;28;20094;-89
2023/12/19 10:56:53;;;;;;;0.93;0.50;;;13.80;79.20;;;;;;5047307;28;20061;-90
2023/12/19 10:59:32;;;;;;;0.70;0.70;;;13.80;79.10;;;;;;5050810;28;20060;-88
2023/12/19 11:02:16;;;;;;;1.65;0.60;;;13.80;79.10;;;;;;5014340;28;20032;-86
2023/12/19 11:04:55;;;;;;;0.80;0.50;;;13.80;78.90;;;;;;5035241;28;20037;-88
2023/12/19 11:07:26;;;;;;;1.02;0.57;;;13.80;78.90;;;;;;5043373;28;20044;-86
2023/12/19 11:10:00;;;;;;;0.77;0.47;;;13.90;78.90;;;;;;5030485;28;20040;-84
2023/12/19 11:12:27;;;;;;;0.57;0.57;;;13.90;78.90;;;;;;5032759;28;20096;-85
2023/12/19 11:14:53;;;;;;;0.70;0.70;;;13.90;78.90;;;;;;5018213;28;20043;-88
2023/12/19 11:17:34;;;;;;;1.00;0.80;;;14.00;79.00;;;;;;5027976;28;20041;-90
2023/12/19 11:20:15;;;;;;;0.82;0.43;;;13.90;78.70;;;;;;5047086;28;20048;-89
2023/12/19 11:23:00;;;;;;;1.20;0.90;;;13.90;78.70;;;;;;5030214;28;20082;-89
2023/12/19 11:25:40;;;;;;;0.75;0.75;;;14.00;78.80;;;;;;5024209;28;20041;-84
2023/12/19 11:28:09;;;;;;;1.17;1.08;;;13.90;78.60;;;;;;5033633;28;20077;-89
2023/12/19 11:30:37;;;;;;;1.00;0.90;;;13.90;78.60;;;;;;5038043;28;20091;-90
2023/12/19 11:33:04;;;;;;;1.30;0.90;;;13.90;78.60;;;;;;5034005;28;20033;-90
2023/12/19 11:35:31;;;;;;;1.05;1.02;;;13.90;78.70;;;;;;5036470;28;20021;-90
2023/12/19 11:38:17;;;;;;;0.88;0.88;;;13.90;78.70;;;;;;5030316;28;20122;-90
2023/12/19 11:40:45;;;;;;;0.85;0.80;;;13.90;78.70;;;;;;5054910;28;20044;-93
2023/12/19 11:43:29;;;;;;;1.35;0.90;;;13.80;78.50;;;;;;5049933;28;20056;-91
2023/12/19 11:45:57;;;;;;;0.85;0.85;;;13.90;78.60;;;;;;5048447;28;20037;-93
2023/12/19 11:48:46;;;;;;;2.25;1.13;;;13.80;78.40;;;;;;5033854;28;20112;-91
2023/12/19 11:51:34;;;;;;;1.83;1.00;;;13.80;78.40;;;;;;5033164;28;20034;-90
2023/12/19 11:54:00;;;;;;;0.95;0.85;;;13.80;78.40;;;;;;5055562;28;20029;-92
2023/12/19 11:56:26;;;;;;;2.20;1.40;;;13.80;78.30;;;;;;5026510;28;20080;-92
2023/12/19 11:58:52;;;;;;;1.83;0.90;;;13.90;78.50;;;;;;5046037;28;20044;-92
2023/12/19 12:01:20;;;;;;;3.17;1.48;;;13.90;78.40;;;;;;5032640;28;20033;-92
2023/12/19 12:03:47;;;;;;;1.25;0.75;;;13.90;78.40;;;;;;5025208;28;20071;-93
2023/12/19 12:06:18;;;;;;;1.98;0.95;;;13.90;78.40;;;;;;5035659;28;20048;-93
2023/12/19 12:08:54;;;;;;;1.75;0.80;;;13.90;78.30;;;;;;5035134;28;20029;-90
2023/12/19 12:11:21;;;;;;;1.27;0.80;;;13.90;78.20;;;;;;5045774;28;20029;-91
2023/12/19 12:14:03;;;;;;;1.20;1.10;;;14.00;78.30;;;;;;5019616;28;20056;-91
2023/12/19 12:16:37;;;;;;;0.93;0.90;;;14.00;78.20;;;;;;5023676;28;20033;-88
2023/12/19 12:19:14;;;;;;;2.58;1.10;;;14.10;78.30;;;;;;5044890;28;20021;-91
2023/12/19 12:21:44;;;;;;;2.08;0.88;;;14.10;78.20;;;;;;5028829;28;20039;-88
2023/12/19 12:24:20;;;;;;;2.15;0.88;;;14.10;78.20;;;;;;5060884;28;20083;-92
2023/12/19 12:27:09;;;;;;;1.10;1.00;;;14.10;78.10;;;;;;5039235;28;20043;-92
2023/12/19 12:29:38;;;;;;;1.17;0.90;;;14.10;78.00;;;;;;5057960;28;20033;-91
2023/12/19 12:32:05;;;;;;;0.50;0.50;;;14.10;78.00;;;;;;5031339;28;20100;-92
2023/12/19 12:34:32;;;;;;;1.70;0.80;;;14.10;77.90;;;;;;5078425;28;20040;-85
2023/12/19 12:36:58;;;;;;;0.90;0.80;;;14.10;77.80;;;;;;5060275;28;20396;-86
2023/12/19 12:39:25;;;;;;;1.52;0.80;;;14.10;77.80;;;;;;5034336;28;20022;-85
2023/12/19 12:42:00;;;;;;;0.60;0.60;;;14.10;77.70;;;;;;5049285;28;20036;-92
2023/12/19 12:44:27;;;;;;;1.10;0.60;;;14.10;77.60;;;;;;5059542;28;20357;-94
2023/12/19 12:46:54;;;;;;;1.02;0.60;;;14.10;77.60;;;;;;5043153;28;20093;-90
2023/12/19 12:49:20;;;;;;;0.60;0.60;;;14.10;77.60;;;;;;5044015;28;20180;-91
2023/12/19 12:51:57;;;;;;;1.23;0.57;;;14.10;77.50;;;;;;5030636;28;20029;-92